createdAt,value
2018-07-11T00:01:03.379Z,21.38
2018-07-11T00:03:49.880Z,21.39
2018-07-11T00:06:22.496Z,21.39
2018-07-11T00:08:54.059Z,21.42
2018-07-11T00:11:26.063Z,21.42
2018-07-11T00:13:58.194Z,21.37
2018-07-11T00:16:29.560Z,21.36
2018-07-11T00:19:00.941Z,21.30
2018-07-11T00:37:25.684Z,21.07
2018-07-11T00:39:57.213Z,21.08
2018-07-11T00:42:28.922Z,21.10
2018-07-11T00:45:00.778Z,21.03
2018-07-11T00:47:32.594Z,20.98
2018-07-11T00:50:03.909Z,20.96
2018-07-11T00:52:36.560Z,20.97
2018-07-11T00:55:08.114Z,20.82
2018-07-11T00:57:42.133Z,20.82
2018-07-11T01:00:13.607Z,20.77
2018-07-11T01:02:45.506Z,20.72
2018-07-11T01:05:17.012Z,20.68
2018-07-11T01:07:48.514Z,20.54
2018-07-11T01:10:20.461Z,20.54
2018-07-11T01:12:51.903Z,20.46
2018-07-11T01:15:23.829Z,20.40
2018-07-11T01:18:05.414Z,20.44
2018-07-11T01:20:36.939Z,20.45
2018-07-11T01:23:08.954Z,20.49
2018-07-11T01:25:40.247Z,20.45
2018-07-11T01:28:12.278Z,20.39
2018-07-11T01:30:43.111Z,20.38
2018-07-11T01:33:14.353Z,20.29
2018-07-11T01:35:45.731Z,20.30
2018-07-11T01:38:16.583Z,20.27
2018-07-11T01:40:47.815Z,20.25
2018-07-11T01:43:19.100Z,20.18
2018-07-11T01:45:50.495Z,20.12
2018-07-11T01:48:22.050Z,20.11
2018-07-11T01:50:54.151Z,20.09
2018-07-11T01:53:25.823Z,20.15
2018-07-11T01:56:07.226Z,20.14
2018-07-11T02:01:44.089Z,20.10
2018-07-11T02:04:36.132Z,20.10
2018-07-11T02:07:08.670Z,20.07
2018-07-11T02:09:40.234Z,20.12
2018-07-11T02:12:21.681Z,20.11
2018-07-11T02:14:58.500Z,20.10
2018-07-11T02:17:29.956Z,20.01
2018-07-11T02:20:07.348Z,19.96
2018-07-11T02:22:40.395Z,19.89
2018-07-11T02:25:13.404Z,19.86
2018-07-11T02:27:46.319Z,19.89
2018-07-11T02:30:18.510Z,19.98
2018-07-11T02:32:50.000Z,20.00
2018-07-11T02:35:21.617Z,19.98
2018-07-11T02:38:53.062Z,19.98
2018-07-11T02:41:26.857Z,20.10
2018-07-11T02:43:58.577Z,20.03
2018-07-11T02:46:35.223Z,20.09
2018-07-11T02:49:06.814Z,20.00
2018-07-11T02:51:53.389Z,19.91
2018-07-11T02:54:24.347Z,20.01
2018-07-11T02:57:01.632Z,19.96
2018-07-11T02:59:33.158Z,19.91
2018-07-11T03:02:04.603Z,19.96
2018-07-11T03:04:35.940Z,19.94
2018-07-11T03:07:08.190Z,19.89
2018-07-11T03:09:41.763Z,19.86
2018-07-11T03:12:13.476Z,19.78
2018-07-11T03:14:50.284Z,19.73
2018-07-11T03:17:22.733Z,19.70
2018-07-11T03:19:54.062Z,19.60
2018-07-11T03:22:25.506Z,19.59
2018-07-11T03:24:56.769Z,19.49
2018-07-11T03:27:28.243Z,19.47
2018-07-11T03:30:04.705Z,19.45
2018-07-11T03:32:40.649Z,19.40
2018-07-11T03:35:12.374Z,19.39
2018-07-11T03:37:43.951Z,19.38
2018-07-11T03:40:26.950Z,19.33
2018-07-11T03:43:09.577Z,19.30
2018-07-11T03:45:41.455Z,19.23
2018-07-11T03:48:12.667Z,19.15
2018-07-11T03:50:44.252Z,19.12
2018-07-11T03:53:16.351Z,19.10
2018-07-11T03:56:22.116Z,19.10
2018-07-11T03:58:59.544Z,18.93
2018-07-11T04:01:32.375Z,18.81
2018-07-11T04:04:58.083Z,18.78
2018-07-11T04:08:12.663Z,18.73
2018-07-11T04:10:48.865Z,19.21
2018-07-11T04:13:29.885Z,19.36
2018-07-11T04:16:14.786Z,19.56
2018-07-11T04:19:12.270Z,19.47
2018-07-11T04:21:57.504Z,19.57
2018-07-11T04:25:04.378Z,19.81
2018-07-11T04:28:34.016Z,20.14
2018-07-11T04:31:27.447Z,20.35
2018-07-11T04:34:04.187Z,20.28
2018-07-11T04:36:35.522Z,20.36
2018-07-11T04:39:20.701Z,20.24
2018-07-11T04:41:54.653Z,20.55
2018-07-11T04:44:37.636Z,20.53
2018-07-11T04:47:14.101Z,20.65
2018-07-11T04:49:45.779Z,20.89
2018-07-11T04:52:18.391Z,21.11
2018-07-11T04:54:50.612Z,21.39
2018-07-11T04:57:22.322Z,21.76
2018-07-11T04:59:53.936Z,21.82
2018-07-11T05:02:25.475Z,21.81
2018-07-11T05:05:15.623Z,21.93
2018-07-11T05:07:55.003Z,22.05
2018-07-11T05:10:28.590Z,22.13
2018-07-11T05:13:12.239Z,22.26
2018-07-11T05:15:47.456Z,22.44
2018-07-11T05:18:19.187Z,22.30
2018-07-11T05:20:50.754Z,21.91
2018-07-11T05:23:33.570Z,21.94
2018-07-11T05:26:05.594Z,21.92
2018-07-11T05:28:38.034Z,22.14
2018-07-11T05:31:12.216Z,21.97
2018-07-11T05:33:43.755Z,21.75
2018-07-11T05:36:15.551Z,21.82
2018-07-11T05:38:47.433Z,21.72
2018-07-11T05:41:19.734Z,21.76
2018-07-11T05:43:51.423Z,21.87
2018-07-11T05:46:22.988Z,21.78
2018-07-11T05:48:55.384Z,22.16
2018-07-11T05:52:26.202Z,21.94
2018-07-11T05:55:43.996Z,22.22
2018-07-11T06:02:32.053Z,22.35
2018-07-11T06:05:07.803Z,22.80
2018-07-11T06:07:46.398Z,23.09
2018-07-11T06:10:18.037Z,23.05
2018-07-11T06:12:50.467Z,22.77
2018-07-11T06:15:37.801Z,22.45
2018-07-11T06:18:25.401Z,22.69
2018-07-11T06:20:56.877Z,22.61
2018-07-11T06:23:43.459Z,22.58
2018-07-11T06:26:19.124Z,22.23
2018-07-11T06:28:50.650Z,22.43
2018-07-11T06:31:22.541Z,22.90
2018-07-11T06:33:59.439Z,23.10
2018-07-11T06:36:30.934Z,23.40
2018-07-11T06:39:02.493Z,23.75
2018-07-11T06:41:34.006Z,23.49
2018-07-11T06:45:24.562Z,23.33
2018-07-11T06:47:58.880Z,23.66
2018-07-11T06:50:30.326Z,24.16
2018-07-11T06:53:01.867Z,24.50
2018-07-11T06:55:33.302Z,24.89
2018-07-11T06:58:40.019Z,24.82
2018-07-11T07:01:15.575Z,25.14
2018-07-11T07:03:47.098Z,24.66
2018-07-11T07:06:19.916Z,25.07
2018-07-11T07:08:51.530Z,24.99
2018-07-11T07:11:23.107Z,25.24
2018-07-11T07:13:54.640Z,25.06
2018-07-11T07:16:26.062Z,25.07
2018-07-11T07:18:57.719Z,24.70
2018-07-11T07:21:29.313Z,24.39
2018-07-11T07:24:00.977Z,24.80
2018-07-11T07:26:32.646Z,25.32
2018-07-11T07:29:04.134Z,26.21
2018-07-11T07:31:35.148Z,25.79
2018-07-11T07:34:07.265Z,24.95
2018-07-11T07:36:38.489Z,25.19
2018-07-11T12:31:22.278Z,29.72
2018-07-11T12:33:54.230Z,29.76
2018-07-11T12:36:52.598Z,29.62
2018-07-11T13:09:00.016Z,29.78
2018-07-11T13:11:36.819Z,29.92
2018-07-11T13:14:08.575Z,30.23
2018-07-11T13:16:40.613Z,29.93
2018-07-11T13:19:12.047Z,29.53
2018-07-11T13:21:43.691Z,29.38
2018-07-11T13:24:15.427Z,29.21
2018-07-11T13:26:47.041Z,29.61
2018-07-11T13:29:19.198Z,30.03
2018-07-11T13:31:50.863Z,30.06
2018-07-11T13:34:22.716Z,29.78
2018-07-11T13:36:54.142Z,30.09
2018-07-11T13:39:26.226Z,30.17
2018-07-11T13:41:58.206Z,30.08
2018-07-11T13:44:29.670Z,29.39
2018-07-11T13:47:01.263Z,29.40
2018-07-11T13:49:33.030Z,29.53
2018-07-11T13:52:05.487Z,29.18
2018-07-11T13:54:37.231Z,28.96
2018-07-11T13:57:08.988Z,29.00
2018-07-11T13:59:40.851Z,28.74
2018-07-11T14:02:12.489Z,28.84
2018-07-11T14:04:43.899Z,28.68
2018-07-11T14:07:15.897Z,28.93
2018-07-11T14:09:47.644Z,28.83
2018-07-11T14:12:18.636Z,28.46
2018-07-11T14:14:50.141Z,28.64
2018-07-11T14:17:21.670Z,28.14
2018-07-11T14:19:53.053Z,28.22
2018-07-11T14:22:24.620Z,28.25
2018-07-11T14:24:56.639Z,28.43
2018-07-11T14:27:29.169Z,27.73
2018-07-11T14:30:03.297Z,28.09
2018-07-11T14:32:35.064Z,28.27
2018-07-11T14:35:06.903Z,28.21
2018-07-11T14:37:39.414Z,28.40
2018-07-11T14:40:11.783Z,28.38
2018-07-11T14:42:44.492Z,28.03
2018-07-11T14:45:20.745Z,28.16
2018-07-11T14:48:02.437Z,28.14
2018-07-11T14:50:34.107Z,27.83
2018-07-11T14:53:06.804Z,27.94
2018-07-11T14:55:38.372Z,28.05
2018-07-11T14:58:09.997Z,27.93
2018-07-11T15:00:41.640Z,27.70
2018-07-11T15:03:13.114Z,27.68
2018-07-11T15:05:44.802Z,27.84
2018-07-11T15:08:16.688Z,27.70
2018-07-11T15:10:48.316Z,27.65
2018-07-11T15:13:19.889Z,27.40
2018-07-11T15:15:51.454Z,27.39
2018-07-11T15:18:22.918Z,27.36
2018-07-11T15:20:54.260Z,27.51
2018-07-11T15:23:26.026Z,27.67
2018-07-11T15:25:57.875Z,27.66
2018-07-11T15:28:29.443Z,27.58
2018-07-11T15:31:01.037Z,27.30
2018-07-11T15:33:33.780Z,27.34
2018-07-11T15:36:05.650Z,27.15
2018-07-11T15:38:37.278Z,27.12
2018-07-11T15:41:09.342Z,27.07
2018-07-11T15:43:43.066Z,27.22
2018-07-11T15:46:14.875Z,27.25
2018-07-11T15:53:01.643Z,27.08
2018-07-11T15:55:35.191Z,26.89
2018-07-11T15:58:15.384Z,26.77
2018-07-11T16:00:47.295Z,26.73
2018-07-11T16:03:20.655Z,26.70
2018-07-11T16:05:52.830Z,26.67
2018-07-11T16:08:29.018Z,26.75
2018-07-11T16:11:04.276Z,26.79
2018-07-11T16:13:37.129Z,26.81
2018-07-11T16:16:21.603Z,26.67
2018-07-11T16:18:53.363Z,26.56
2018-07-11T16:21:45.029Z,26.49
2018-07-11T16:24:17.957Z,26.34
2018-07-11T16:26:49.771Z,26.32
2018-07-11T16:29:21.457Z,26.28
2018-07-11T16:31:52.970Z,26.25
2018-07-11T16:34:24.770Z,26.19
2018-07-11T16:36:56.676Z,26.23
2018-07-11T16:39:28.520Z,26.29
2018-07-11T16:42:00.798Z,26.16
2018-07-11T16:44:33.109Z,26.06
2018-07-11T16:47:06.282Z,26.01
2018-07-11T16:49:41.939Z,26.02
2018-07-11T16:52:13.824Z,25.99
2018-07-11T16:54:56.368Z,25.88
2018-07-11T16:57:35.606Z,25.84
2018-07-11T17:00:09.691Z,25.77
2018-07-11T17:02:44.863Z,25.81
2018-07-11T17:05:22.769Z,25.81
2018-07-11T17:08:00.662Z,25.76
2018-07-11T17:10:32.966Z,25.70
2018-07-11T17:13:14.385Z,25.68
2018-07-11T17:15:51.199Z,25.66
2018-07-11T17:18:48.959Z,25.64
2018-07-11T17:21:58.204Z,25.55
2018-07-11T17:24:30.803Z,25.46
2018-07-11T17:27:02.680Z,25.42
2018-07-11T17:29:34.547Z,25.34
2018-07-11T17:32:09.947Z,25.31
2018-07-11T17:34:41.660Z,25.29
2018-07-11T17:37:13.424Z,25.22
2018-07-11T17:39:57.347Z,25.16
2018-07-11T17:42:30.395Z,25.10
2018-07-11T17:45:17.783Z,25.05
2018-07-11T17:50:06.138Z,24.97
2018-07-11T17:52:54.594Z,24.81
2018-07-11T17:55:36.161Z,24.80
2018-07-11T17:58:10.118Z,24.73
2018-07-11T18:00:46.786Z,24.67
2018-07-11T18:04:08.240Z,24.68
2018-07-11T18:07:29.327Z,24.64
2018-07-11T18:10:07.835Z,24.58
2018-07-11T18:15:12.073Z,24.59
2018-07-11T18:20:19.518Z,24.48
2018-07-11T18:23:12.709Z,24.40
2018-07-11T18:26:07.442Z,24.40
2018-07-11T18:28:52.450Z,24.38
2018-07-11T18:32:09.972Z,24.34
2018-07-11T18:37:02.530Z,24.30
2018-07-11T18:39:47.210Z,24.17
2018-07-11T18:42:54.102Z,24.19
2018-07-11T18:45:44.920Z,24.13
2018-07-11T18:49:32.279Z,24.04
2018-07-11T18:54:29.807Z,23.90
2018-07-11T19:05:13.516Z,23.70
2018-07-11T19:07:59.229Z,23.59
2018-07-11T19:11:48.333Z,23.60
2018-07-11T19:14:37.376Z,23.51
2018-07-11T19:17:37.847Z,23.47
2018-07-11T19:20:32.787Z,23.46
2018-07-11T19:33:16.385Z,23.44
2018-07-11T19:36:13.707Z,23.18
2018-07-11T19:39:02.882Z,23.21
2018-07-11T19:43:52.793Z,23.21
2018-07-11T19:47:22.197Z,23.07
2018-07-11T19:51:12.714Z,23.14
2018-07-11T19:54:00.971Z,23.08
2018-07-11T19:56:48.911Z,23.10
2018-07-11T19:59:20.327Z,23.07
2018-07-11T20:01:51.747Z,23.08
2018-07-11T20:04:23.325Z,23.06
2018-07-11T20:06:55.030Z,23.03
2018-07-11T20:09:26.698Z,22.98
2018-07-11T20:11:58.909Z,22.93
2018-07-11T20:14:31.177Z,22.87
2018-07-11T20:17:02.946Z,22.83
2018-07-11T20:19:34.524Z,22.83
2018-07-11T20:22:06.015Z,22.80
2018-07-11T20:24:37.605Z,22.81
2018-07-11T20:27:31.865Z,22.78
2018-07-11T20:30:04.165Z,22.74
2018-07-11T20:32:36.348Z,22.68
2018-07-11T20:35:08.043Z,22.62
2018-07-11T20:37:39.932Z,22.54
2018-07-11T20:40:11.493Z,22.50
2018-07-11T20:42:43.002Z,22.51
2018-07-11T20:45:17.744Z,22.49
2018-07-11T20:47:49.360Z,22.43
2018-07-11T20:50:21.723Z,22.43
2018-07-11T20:52:58.094Z,22.43
2018-07-11T20:55:30.164Z,22.41
2018-07-11T20:58:17.757Z,22.27
2018-07-11T21:01:05.626Z,22.26
2018-07-11T21:03:59.685Z,22.18
2018-07-11T21:16:48.276Z,22.13
2018-07-11T21:19:25.676Z,21.76
2018-07-11T21:21:59.590Z,21.81
2018-07-11T21:24:30.966Z,21.75
2018-07-11T21:27:02.532Z,21.78
2018-07-11T21:29:34.736Z,21.79
2018-07-11T21:32:05.662Z,21.77
2018-07-11T21:34:36.897Z,21.76
2018-07-11T21:37:10.605Z,21.67
2018-07-11T21:39:41.943Z,21.63
2018-07-11T21:42:14.447Z,21.67
2018-07-11T21:44:46.905Z,21.62
2018-07-11T21:47:18.413Z,21.62
2018-07-11T21:49:50.343Z,21.60
2018-07-11T21:52:22.661Z,21.57
2018-07-11T21:54:53.865Z,21.58
2018-07-11T21:57:25.180Z,21.58
2018-07-11T21:59:56.899Z,21.52
2018-07-11T22:02:28.531Z,21.46
2018-07-11T22:05:00.254Z,21.41
2018-07-11T22:07:33.630Z,21.40
2018-07-11T22:10:05.830Z,21.36
2018-07-11T22:12:37.211Z,21.42
2018-07-11T22:15:08.519Z,21.42
2018-07-11T22:18:54.531Z,21.51
2018-07-11T22:21:24.127Z,21.35
2018-07-11T22:23:53.062Z,21.19
2018-07-11T22:26:21.853Z,21.22
2018-07-11T22:28:50.639Z,21.16
2018-07-11T22:31:19.407Z,21.15
2018-07-11T22:33:48.219Z,21.40
2018-07-11T22:36:16.929Z,21.35
2018-07-11T22:38:45.695Z,21.53
2018-07-11T22:41:14.469Z,21.33
2018-07-11T22:43:43.234Z,21.26
2018-07-11T22:46:11.969Z,21.25
2018-07-11T22:48:40.727Z,21.26
2018-07-11T22:51:09.572Z,21.18
2018-07-11T22:53:38.546Z,21.27
2018-07-11T22:56:07.230Z,21.25
2018-07-11T22:58:35.942Z,21.21
2018-07-11T23:01:04.895Z,21.14
2018-07-11T23:03:33.560Z,21.04
2018-07-11T23:06:02.632Z,20.98
2018-07-11T23:08:31.876Z,20.98
2018-07-11T23:11:00.738Z,21.00
2018-07-11T23:13:29.531Z,20.95
2018-07-11T23:15:59.140Z,20.89
2018-07-11T23:18:27.909Z,20.82
2018-07-11T23:20:58.266Z,20.76
2018-07-11T23:23:27.047Z,20.81
2018-07-11T23:25:55.981Z,20.76
2018-07-11T23:28:24.711Z,20.77
2018-07-11T23:30:53.460Z,20.77
2018-07-11T23:33:22.221Z,20.68
2018-07-11T23:35:51.008Z,20.61
2018-07-11T23:38:19.736Z,20.60
2018-07-11T23:40:48.508Z,20.57
2018-07-11T23:43:17.385Z,20.49
2018-07-11T23:45:46.199Z,20.48
2018-07-11T23:48:15.270Z,20.47
2018-07-11T23:50:43.919Z,20.42
2018-07-11T23:53:12.648Z,20.45
2018-07-11T23:55:41.493Z,20.34
2018-07-11T23:58:10.230Z,20.31
